sensor_id;sensor_type;location;lat;lon;timestamp;temperature;humidity
25334;DHT22;24559;53.590;9.764;2023-04-10T00:00:43;9.60;99.90
25334;DHT22;24559;53.590;9.764;2023-04-10T00:03:10;9.60;99.90
25334;DHT22;24559;53.590;9.764;2023-04-10T00:05:35;9.60;99.90
25334;DHT22;24559;53.590;9.764;2023-04-10T00:08:01;9.60;99.90
25334;DHT22;24559;53.590;9.764;2023-04-10T00:10:27;9.60;99.90
25334;DHT22;24559;53.590;9.764;2023-04-10T00:12:56;9.60;99.90
25334;DHT22;24559;53.590;9.764;2023-04-10T00:15:22;9.60;99.90
25334;DHT22;24559;53.590;9.764;2023-04-10T00:17:47;9.60;99.90
25334;DHT22;24559;53.590;9.764;2023-04-10T00:20:15;9.50;99.90
25334;DHT22;24559;53.590;9.764;2023-04-10T00:22:41;9.60;99.90
25334;DHT22;24559;53.590;9.764;2023-04-10T00:25:08;9.60;99.90
25334;DHT22;24559;53.590;9.764;2023-04-10T00:27:33;9.50;99.90
25334;DHT22;24559;53.590;9.764;2023-04-10T00:29:59;9.60;99.90
25334;DHT22;24559;53.590;9.764;2023-04-10T00:32:26;9.60;99.90
25334;DHT22;24559;53.590;9.764;2023-04-10T00:34:52;9.50;99.90
25334;DHT22;24559;53.590;9.764;2023-04-10T00:37:18;9.50;99.90
25334;DHT22;24559;53.590;9.764;2023-04-10T00:39:44;9.50;99.90
25334;DHT22;24559;53.590;9.764;2023-04-10T00:42:10;9.50;99.90
25334;DHT22;24559;53.590;9.764;2023-04-10T00:44:35;9.50;99.90
25334;DHT22;24559;53.590;9.764;2023-04-10T00:47:02;9.50;99.90
25334;DHT22;24559;53.590;9.764;2023-04-10T00:49:29;9.50;99.90
25334;DHT22;24559;53.590;9.764;2023-04-10T00:51:55;9.50;99.90
25334;DHT22;24559;53.590;9.764;2023-04-10T00:54:21;9.50;99.90
25334;DHT22;24559;53.590;9.764;2023-04-10T00:56:47;9.50;99.90
25334;DHT22;24559;53.590;9.764;2023-04-10T00:59:13;9.50;99.90
25334;DHT22;24559;53.590;9.764;2023-04-10T01:01:39;9.50;99.90
25334;DHT22;24559;53.590;9.764;2023-04-10T01:04:05;9.10;99.90
25334;DHT22;24559;53.590;9.764;2023-04-10T01:09:16;9.50;99.90
25334;DHT22;24559;53.590;9.764;2023-04-10T01:11:52;9.50;99.90
25334;DHT22;24559;53.590;9.764;2023-04-10T01:14:39;9.40;99.90
25334;DHT22;24559;53.590;9.764;2023-04-10T01:17:09;9.50;99.90
25334;DHT22;24559;53.590;9.764;2023-04-10T01:22:11;9.50;99.90
25334;DHT22;24559;53.590;9.764;2023-04-10T01:24:49;9.60;99.90
25334;DHT22;24559;53.590;9.764;2023-04-10T01:29:46;9.40;99.90
25334;DHT22;24559;53.590;9.764;2023-04-10T01:32:17;10.00;99.90
25334;DHT22;24559;53.590;9.764;2023-04-10T01:34:45;9.60;99.90
25334;DHT22;24559;53.590;9.764;2023-04-10T01:37:17;9.60;99.90
25334;DHT22;24559;53.590;9.764;2023-04-10T01:39:45;9.50;99.90
25334;DHT22;24559;53.590;9.764;2023-04-10T01:42:15;9.50;99.90
25334;DHT22;24559;53.590;9.764;2023-04-10T01:44:43;9.40;99.90
25334;DHT22;24559;53.590;9.764;2023-04-10T01:47:10;8.50;99.90
25334;DHT22;24559;53.590;9.764;2023-04-10T01:49:41;9.50;99.90
25334;DHT22;24559;53.590;9.764;2023-04-10T01:52:10;9.50;99.90
25334;DHT22;24559;53.590;9.764;2023-04-10T01:54:35;10.00;99.90
25334;DHT22;24559;53.590;9.764;2023-04-10T01:57:02;9.50;99.90
25334;DHT22;24559;53.590;9.764;2023-04-10T01:59:31;9.50;99.90
25334;DHT22;24559;53.590;9.764;2023-04-10T02:01:57;9.60;99.90
25334;DHT22;24559;53.590;9.764;2023-04-10T02:04:23;9.60;99.90
25334;DHT22;24559;53.590;9.764;2023-04-10T02:12:13;9.60;99.90
25334;DHT22;24559;53.590;9.764;2023-04-10T02:14:41;9.50;99.90
25334;DHT22;24559;53.590;9.764;2023-04-10T02:17:09;9.50;99.90
25334;DHT22;24559;53.590;9.764;2023-04-10T02:19:40;9.50;99.90
25334;DHT22;24559;53.590;9.764;2023-04-10T02:22:05;9.50;99.90
25334;DHT22;24559;53.590;9.764;2023-04-10T02:24:33;9.60;99.90
25334;DHT22;24559;53.590;9.764;2023-04-10T02:26:59;9.50;99.90
25334;DHT22;24559;53.590;9.764;2023-04-10T02:29:25;9.60;99.90
25334;DHT22;24559;53.590;9.764;2023-04-10T02:31:51;9.60;99.90
25334;DHT22;24559;53.590;9.764;2023-04-10T02:34:18;9.50;99.90
25334;DHT22;24559;53.590;9.764;2023-04-10T02:36:43;9.50;99.90
25334;DHT22;24559;53.590;9.764;2023-04-10T02:39:11;9.00;99.90
25334;DHT22;24559;53.590;9.764;2023-04-10T02:41:45;9.40;99.90
25334;DHT22;24559;53.590;9.764;2023-04-10T02:44:15;9.40;99.90
25334;DHT22;24559;53.590;9.764;2023-04-10T02:46:45;9.50;99.90
25334;DHT22;24559;53.590;9.764;2023-04-10T02:49:15;9.50;99.90
25334;DHT22;24559;53.590;9.764;2023-04-10T02:51:41;9.50;99.90
25334;DHT22;24559;53.590;9.764;2023-04-10T02:54:08;9.50;99.90
25334;DHT22;24559;53.590;9.764;2023-04-10T02:56:36;9.50;99.90
25334;DHT22;24559;53.590;9.764;2023-04-10T02:59:01;9.40;99.90
25334;DHT22;24559;53.590;9.764;2023-04-10T03:01:29;9.50;99.90
25334;DHT22;24559;53.590;9.764;2023-04-10T03:03:55;9.40;99.90
25334;DHT22;24559;53.590;9.764;2023-04-10T03:06:36;9.40;99.90
25334;DHT22;24559;53.590;9.764;2023-04-10T03:09:02;9.30;99.90
25334;DHT22;24559;53.590;9.764;2023-04-10T03:11:27;9.30;99.90
25334;DHT22;24559;53.590;9.764;2023-04-10T03:13:54;9.20;99.90
25334;DHT22;24559;53.590;9.764;2023-04-10T03:16:20;9.20;99.90
25334;DHT22;24559;53.590;9.764;2023-04-10T03:18:46;9.30;99.90
25334;DHT22;24559;53.590;9.764;2023-04-10T03:21:15;9.30;99.90
25334;DHT22;24559;53.590;9.764;2023-04-10T03:23:41;9.30;99.90
25334;DHT22;24559;53.590;9.764;2023-04-10T03:26:10;9.20;99.90
25334;DHT22;24559;53.590;9.764;2023-04-10T03:28:37;9.20;99.90
25334;DHT22;24559;53.590;9.764;2023-04-10T03:31:04;9.10;99.90
25334;DHT22;24559;53.590;9.764;2023-04-10T03:33:33;9.10;99.90
25334;DHT22;24559;53.590;9.764;2023-04-10T03:35:59;9.00;99.90
25334;DHT22;24559;53.590;9.764;2023-04-10T03:38:25;9.10;99.90
25334;DHT22;24559;53.590;9.764;2023-04-10T03:40:51;9.00;99.90
25334;DHT22;24559;53.590;9.764;2023-04-10T03:43:19;9.00;99.90
25334;DHT22;24559;53.590;9.764;2023-04-10T03:45:46;9.10;99.90
25334;DHT22;24559;53.590;9.764;2023-04-10T03:48:16;9.10;99.90
25334;DHT22;24559;53.590;9.764;2023-04-10T03:50:45;9.10;99.90
25334;DHT22;24559;53.590;9.764;2023-04-10T03:53:11;9.70;99.90
25334;DHT22;24559;53.590;9.764;2023-04-10T03:55:40;9.10;99.90
25334;DHT22;24559;53.590;9.764;2023-04-10T03:58:05;9.10;99.90
25334;DHT22;24559;53.590;9.764;2023-04-10T04:00:31;9.10;99.90
25334;DHT22;24559;53.590;9.764;2023-04-10T04:03:09;9.10;99.90
25334;DHT22;24559;53.590;9.764;2023-04-10T04:05:55;9.10;99.90
25334;DHT22;24559;53.590;9.764;2023-04-10T04:08:48;9.00;99.90
25334;DHT22;24559;53.590;9.764;2023-04-10T04:11:19;9.00;99.90
25334;DHT22;24559;53.590;9.764;2023-04-10T04:13:55;8.90;99.90
25334;DHT22;24559;53.590;9.764;2023-04-10T04:16:39;8.90;99.90
25334;DHT22;24559;53.590;9.764;2023-04-10T04:19:23;9.00;99.90
25334;DHT22;24559;53.590;9.764;2023-04-10T04:22:05;8.90;99.90
25334;DHT22;24559;53.590;9.764;2023-04-10T04:24:49;9.00;99.90
25334;DHT22;24559;53.590;9.764;2023-04-10T04:27:30;9.00;99.90
25334;DHT22;24559;53.590;9.764;2023-04-10T04:30:06;9.10;99.90
25334;DHT22;24559;53.590;9.764;2023-04-10T04:33:03;9.00;99.90
25334;DHT22;24559;53.590;9.764;2023-04-10T04:35:55;9.00;99.90
25334;DHT22;24559;53.590;9.764;2023-04-10T04:38:39;8.90;99.90
25334;DHT22;24559;53.590;9.764;2023-04-10T04:41:34;8.80;99.90
25334;DHT22;24559;53.590;9.764;2023-04-10T04:44:14;8.70;99.90
25334;DHT22;24559;53.590;9.764;2023-04-10T04:46:49;8.80;99.90
25334;DHT22;24559;53.590;9.764;2023-04-10T04:49:34;9.30;99.90
25334;DHT22;24559;53.590;9.764;2023-04-10T04:52:23;8.80;99.90
25334;DHT22;24559;53.590;9.764;2023-04-10T04:55:08;8.80;99.90
25334;DHT22;24559;53.590;9.764;2023-04-10T04:57:52;8.70;99.90
25334;DHT22;24559;53.590;9.764;2023-04-10T05:00:28;8.70;99.90
25334;DHT22;24559;53.590;9.764;2023-04-10T05:03:02;8.70;99.90
25334;DHT22;24559;53.590;9.764;2023-04-10T05:05:32;8.70;99.90
25334;DHT22;24559;53.590;9.764;2023-04-10T05:08:10;8.80;99.90
25334;DHT22;24559;53.590;9.764;2023-04-10T05:10:54;8.90;99.90
25334;DHT22;24559;53.590;9.764;2023-04-10T05:13:43;9.60;99.90
25334;DHT22;24559;53.590;9.764;2023-04-10T05:16:13;9.10;99.90
25334;DHT22;24559;53.590;9.764;2023-04-10T05:19:00;9.30;99.90
25334;DHT22;24559;53.590;9.764;2023-04-10T05:21:46;9.20;99.90
25334;DHT22;24559;53.590;9.764;2023-04-10T05:24:30;9.70;99.90
25334;DHT22;24559;53.590;9.764;2023-04-10T05:27:18;9.30;99.90
25334;DHT22;24559;53.590;9.764;2023-04-10T05:30:06;9.80;99.90
25334;DHT22;24559;53.590;9.764;2023-04-10T05:33:00;9.50;99.90
25334;DHT22;24559;53.590;9.764;2023-04-10T05:36:02;9.80;99.90
25334;DHT22;24559;53.590;9.764;2023-04-10T05:38:46;9.60;99.90
25334;DHT22;24559;53.590;9.764;2023-04-10T05:41:32;9.70;99.90
25334;DHT22;24559;53.590;9.764;2023-04-10T05:44:24;9.80;99.90
25334;DHT22;24559;53.590;9.764;2023-04-10T05:46:59;9.90;99.90
25334;DHT22;24559;53.590;9.764;2023-04-10T05:49:42;10.10;99.90
25334;DHT22;24559;53.590;9.764;2023-04-10T05:52:21;10.20;99.90
25334;DHT22;24559;53.590;9.764;2023-04-10T05:55:05;10.20;99.90
25334;DHT22;24559;53.590;9.764;2023-04-10T05:57:31;10.30;99.90
25334;DHT22;24559;53.590;9.764;2023-04-10T06:00:17;10.30;99.90
25334;DHT22;24559;53.590;9.764;2023-04-10T06:03:02;10.80;99.90
25334;DHT22;24559;53.590;9.764;2023-04-10T06:05:29;10.40;99.90
25334;DHT22;24559;53.590;9.764;2023-04-10T06:07:59;10.50;99.90
25334;DHT22;24559;53.590;9.764;2023-04-10T06:10:27;10.60;99.90
25334;DHT22;24559;53.590;9.764;2023-04-10T06:12:53;10.60;99.90
25334;DHT22;24559;53.590;9.764;2023-04-10T06:15:22;10.70;99.90
25334;DHT22;24559;53.590;9.764;2023-04-10T06:17:48;10.80;99.90
25334;DHT22;24559;53.590;9.764;2023-04-10T06:20:14;10.80;99.90
25334;DHT22;24559;53.590;9.764;2023-04-10T06:22:40;11.00;99.90
25334;DHT22;24559;53.590;9.764;2023-04-10T06:25:05;11.00;99.90
25334;DHT22;24559;53.590;9.764;2023-04-10T06:27:32;11.00;99.90
25334;DHT22;24559;53.590;9.764;2023-04-10T06:29:59;11.20;99.90
25334;DHT22;24559;53.590;9.764;2023-04-10T06:32:24;11.20;99.90
25334;DHT22;24559;53.590;9.764;2023-04-10T06:34:50;11.30;99.90
25334;DHT22;24559;53.590;9.764;2023-04-10T06:37:17;11.40;99.90
25334;DHT22;24559;53.590;9.764;2023-04-10T06:39:43;11.60;99.90
25334;DHT22;24559;53.590;9.764;2023-04-10T06:42:10;11.80;99.90
25334;DHT22;24559;53.590;9.764;2023-04-10T06:44:55;11.90;99.90
25334;DHT22;24559;53.590;9.764;2023-04-10T06:47:20;12.00;99.90
25334;DHT22;24559;53.590;9.764;2023-04-10T06:49:46;12.10;99.90
25334;DHT22;24559;53.590;9.764;2023-04-10T06:52:12;12.30;99.90
25334;DHT22;24559;53.590;9.764;2023-04-10T06:54:40;12.50;99.90
25334;DHT22;24559;53.590;9.764;2023-04-10T06:57:06;12.50;99.90
25334;DHT22;24559;53.590;9.764;2023-04-10T06:59:31;13.40;99.90
25334;DHT22;24559;53.590;9.764;2023-04-10T07:01:59;12.80;99.90
25334;DHT22;24559;53.590;9.764;2023-04-10T07:04:24;12.90;99.90
25334;DHT22;24559;53.590;9.764;2023-04-10T07:06:50;13.10;99.90
25334;DHT22;24559;53.590;9.764;2023-04-10T07:09:15;13.00;99.90
25334;DHT22;24559;53.590;9.764;2023-04-10T07:11:41;13.10;99.90
25334;DHT22;24559;53.590;9.764;2023-04-10T07:14:07;13.30;99.90
25334;DHT22;24559;53.590;9.764;2023-04-10T07:16:32;13.30;99.90
25334;DHT22;24559;53.590;9.764;2023-04-10T07:18:58;13.40;99.90
25334;DHT22;24559;53.590;9.764;2023-04-10T07:21:23;13.50;99.90
25334;DHT22;24559;53.590;9.764;2023-04-10T07:23:49;13.70;99.90
25334;DHT22;24559;53.590;9.764;2023-04-10T07:26:14;13.80;99.90
25334;DHT22;24559;53.590;9.764;2023-04-10T07:28:40;13.90;99.90
25334;DHT22;24559;53.590;9.764;2023-04-10T07:31:06;14.00;99.90
25334;DHT22;24559;53.590;9.764;2023-04-10T07:33:32;14.20;99.90
25334;DHT22;24559;53.590;9.764;2023-04-10T07:35:58;14.10;99.90
25334;DHT22;24559;53.590;9.764;2023-04-10T07:38:24;14.30;99.90
25334;DHT22;24559;53.590;9.764;2023-04-10T07:40:54;14.70;99.90
25334;DHT22;24559;53.590;9.764;2023-04-10T07:43:20;14.90;99.90
25334;DHT22;24559;53.590;9.764;2023-04-10T07:45:45;15.00;99.90
25334;DHT22;24559;53.590;9.764;2023-04-10T07:48:11;14.90;99.90
25334;DHT22;24559;53.590;9.764;2023-04-10T07:50:37;15.20;99.90
25334;DHT22;24559;53.590;9.764;2023-04-10T07:53:03;15.70;99.90
25334;DHT22;24559;53.590;9.764;2023-04-10T07:58:03;15.80;99.90
25334;DHT22;24559;53.590;9.764;2023-04-10T08:00:29;16.10;99.90
25334;DHT22;24559;53.590;9.764;2023-04-10T08:02:54;16.40;99.90
25334;DHT22;24559;53.590;9.764;2023-04-10T08:05:20;16.70;99.90
25334;DHT22;24559;53.590;9.764;2023-04-10T08:07:46;17.00;99.90
25334;DHT22;24559;53.590;9.764;2023-04-10T08:10:11;17.20;99.90
25334;DHT22;24559;53.590;9.764;2023-04-10T08:12:37;17.20;99.90
25334;DHT22;24559;53.590;9.764;2023-04-10T08:15:02;17.50;99.90
25334;DHT22;24559;53.590;9.764;2023-04-10T08:17:28;17.60;99.90
25334;DHT22;24559;53.590;9.764;2023-04-10T08:19:54;17.90;99.90
25334;DHT22;24559;53.590;9.764;2023-04-10T08:22:19;18.10;99.90
25334;DHT22;24559;53.590;9.764;2023-04-10T08:24:45;18.40;99.90
25334;DHT22;24559;53.590;9.764;2023-04-10T08:27:10;18.30;99.90
25334;DHT22;24559;53.590;9.764;2023-04-10T08:29:36;18.30;99.90
25334;DHT22;24559;53.590;9.764;2023-04-10T08:32:01;18.50;99.90
25334;DHT22;24559;53.590;9.764;2023-04-10T08:34:27;18.40;99.90
25334;DHT22;24559;53.590;9.764;2023-04-10T08:36:53;18.70;99.90
25334;DHT22;24559;53.590;9.764;2023-04-10T08:39:18;18.70;99.90
25334;DHT22;24559;53.590;9.764;2023-04-10T08:41:44;18.90;99.90
25334;DHT22;24559;53.590;9.764;2023-04-10T08:44:10;19.00;99.90
25334;DHT22;24559;53.590;9.764;2023-04-10T08:46:36;19.00;99.90
25334;DHT22;24559;53.590;9.764;2023-04-10T08:49:04;19.10;99.90
25334;DHT22;24559;53.590;9.764;2023-04-10T08:51:35;19.50;99.90
25334;DHT22;24559;53.590;9.764;2023-04-10T08:54:04;20.10;99.90
25334;DHT22;24559;53.590;9.764;2023-04-10T08:56:31;20.10;99.90
25334;DHT22;24559;53.590;9.764;2023-04-10T08:58:57;20.90;99.90
25334;DHT22;24559;53.590;9.764;2023-04-10T09:01:23;20.80;99.90
25334;DHT22;24559;53.590;9.764;2023-04-10T09:03:49;20.80;99.90
25334;DHT22;24559;53.590;9.764;2023-04-10T09:06:15;21.00;99.90
25334;DHT22;24559;53.590;9.764;2023-04-10T09:08:41;21.20;98.70
25334;DHT22;24559;53.590;9.764;2023-04-10T09:11:06;21.20;99.90
25334;DHT22;24559;53.590;9.764;2023-04-10T09:13:42;21.60;96.90
25334;DHT22;24559;53.590;9.764;2023-04-10T09:16:12;21.40;99.90
25334;DHT22;24559;53.590;9.764;2023-04-10T09:18:45;21.40;92.50
25334;DHT22;24559;53.590;9.764;2023-04-10T09:21:13;21.50;96.80
25334;DHT22;24559;53.590;9.764;2023-04-10T09:23:40;21.60;95.00
25334;DHT22;24559;53.590;9.764;2023-04-10T09:26:20;21.80;97.50
25334;DHT22;24559;53.590;9.764;2023-04-10T09:29:03;21.80;89.10
25334;DHT22;24559;53.590;9.764;2023-04-10T09:31:33;21.70;92.30
25334;DHT22;24559;53.590;9.764;2023-04-10T09:36:44;21.70;89.60
25334;DHT22;24559;53.590;9.764;2023-04-10T09:39:17;21.70;88.30
25334;DHT22;24559;53.590;9.764;2023-04-10T09:41:49;21.80;99.90
25334;DHT22;24559;53.590;9.764;2023-04-10T09:44:16;22.10;91.60
25334;DHT22;24559;53.590;9.764;2023-04-10T09:46:43;22.40;91.00
25334;DHT22;24559;53.590;9.764;2023-04-10T09:49:09;22.70;91.90
25334;DHT22;24559;53.590;9.764;2023-04-10T09:51:35;23.10;86.60
25334;DHT22;24559;53.590;9.764;2023-04-10T09:54:01;23.10;86.90
25334;DHT22;24559;53.590;9.764;2023-04-10T09:56:30;23.10;83.20
25334;DHT22;24559;53.590;9.764;2023-04-10T09:58:59;23.20;72.80
25334;DHT22;24559;53.590;9.764;2023-04-10T10:01:25;23.20;85.20
25334;DHT22;24559;53.590;9.764;2023-04-10T10:03:50;23.40;80.10
25334;DHT22;24559;53.590;9.764;2023-04-10T10:06:18;23.20;61.60
25334;DHT22;24559;53.590;9.764;2023-04-10T10:08:43;22.70;70.00
25334;DHT22;24559;53.590;9.764;2023-04-10T10:11:09;22.50;73.20
25334;DHT22;24559;53.590;9.764;2023-04-10T10:13:49;22.70;80.50
25334;DHT22;24559;53.590;9.764;2023-04-10T10:16:28;23.20;73.90
25334;DHT22;24559;53.590;9.764;2023-04-10T10:21:35;23.80;71.90
25334;DHT22;24559;53.590;9.764;2023-04-10T10:24:01;23.80;58.60
25334;DHT22;24559;53.590;9.764;2023-04-10T10:26:27;23.20;68.90
25334;DHT22;24559;53.590;9.764;2023-04-10T10:28:53;23.10;62.90
25334;DHT22;24559;53.590;9.764;2023-04-10T10:31:20;22.60;65.40
25334;DHT22;24559;53.590;9.764;2023-04-10T10:33:49;22.70;66.20
25334;DHT22;24559;53.590;9.764;2023-04-10T10:36:16;23.00;67.30
25334;DHT22;24559;53.590;9.764;2023-04-10T10:38:44;23.30;61.10
25334;DHT22;24559;53.590;9.764;2023-04-10T10:41:29;23.10;62.10
25334;DHT22;24559;53.590;9.764;2023-04-10T10:44:07;23.20;68.70
25334;DHT22;24559;53.590;9.764;2023-04-10T10:49:04;23.00;67.50
25334;DHT22;24559;53.590;9.764;2023-04-10T10:51:41;23.00;62.80
25334;DHT22;24559;53.590;9.764;2023-04-10T10:56:51;23.30;59.20
25334;DHT22;24559;53.590;9.764;2023-04-10T10:59:17;23.20;58.50
25334;DHT22;24559;53.590;9.764;2023-04-10T11:02:10;23.50;59.80
25334;DHT22;24559;53.590;9.764;2023-04-10T11:07:12;23.50;58.00
25334;DHT22;24559;53.590;9.764;2023-04-10T11:09:52;23.60;64.00
25334;DHT22;24559;53.590;9.764;2023-04-10T11:12:19;23.80;58.40
25334;DHT22;24559;53.590;9.764;2023-04-10T11:14:54;24.20;56.00
25334;DHT22;24559;53.590;9.764;2023-04-10T11:20:05;24.70;55.50
25334;DHT22;24559;53.590;9.764;2023-04-10T11:22:39;24.40;56.30
25334;DHT22;24559;53.590;9.764;2023-04-10T11:25:17;24.60;55.60
25334;DHT22;24559;53.590;9.764;2023-04-10T11:27:46;24.60;44.40
25334;DHT22;24559;53.590;9.764;2023-04-10T11:32:52;24.70;47.50
25334;DHT22;24559;53.590;9.764;2023-04-10T11:35:18;24.60;45.60
25334;DHT22;24559;53.590;9.764;2023-04-10T11:37:44;24.70;51.70
25334;DHT22;24559;53.590;9.764;2023-04-10T11:40:10;24.70;47.20
25334;DHT22;24559;53.590;9.764;2023-04-10T11:42:35;24.50;49.30
25334;DHT22;24559;53.590;9.764;2023-04-10T11:45:20;24.50;46.70
25334;DHT22;24559;53.590;9.764;2023-04-10T11:47:52;24.70;48.60
25334;DHT22;24559;53.590;9.764;2023-04-10T11:50:18;24.20;44.20
25334;DHT22;24559;53.590;9.764;2023-04-10T11:52:49;24.30;51.40
25334;DHT22;24559;53.590;9.764;2023-04-10T11:55:15;24.20;45.80
25334;DHT22;24559;53.590;9.764;2023-04-10T11:57:41;24.20;50.80
25334;DHT22;24559;53.590;9.764;2023-04-10T12:00:07;24.40;51.40
25334;DHT22;24559;53.590;9.764;2023-04-10T12:02:33;24.40;45.50
25334;DHT22;24559;53.590;9.764;2023-04-10T12:04:58;24.30;50.40
25334;DHT22;24559;53.590;9.764;2023-04-10T12:07:24;24.60;50.70
25334;DHT22;24559;53.590;9.764;2023-04-10T12:09:56;24.90;52.80
25334;DHT22;24559;53.590;9.764;2023-04-10T12:12:33;25.20;47.90
25334;DHT22;24559;53.590;9.764;2023-04-10T12:14:59;25.40;48.90
25334;DHT22;24559;53.590;9.764;2023-04-10T12:17:24;25.10;52.60
25334;DHT22;24559;53.590;9.764;2023-04-10T12:19:50;24.70;49.00
25334;DHT22;24559;53.590;9.764;2023-04-10T12:22:15;24.80;51.90
25334;DHT22;24559;53.590;9.764;2023-04-10T12:24:45;24.30;51.30
25334;DHT22;24559;53.590;9.764;2023-04-10T12:27:18;24.40;44.00
25334;DHT22;24559;53.590;9.764;2023-04-10T12:29:44;24.60;51.30
25334;DHT22;24559;53.590;9.764;2023-04-10T12:32:10;24.00;47.70
25334;DHT22;24559;53.590;9.764;2023-04-10T12:34:36;23.80;51.20
25334;DHT22;24559;53.590;9.764;2023-04-10T12:37:02;24.00;52.90
25334;DHT22;24559;53.590;9.764;2023-04-10T12:39:28;23.60;52.30
25334;DHT22;24559;53.590;9.764;2023-04-10T12:42:10;23.30;59.00
25334;DHT22;24559;53.590;9.764;2023-04-10T12:44:48;23.50;50.60
25334;DHT22;24559;53.590;9.764;2023-04-10T12:47:14;23.60;52.10
25334;DHT22;24559;53.590;9.764;2023-04-10T12:49:39;24.20;47.30
25334;DHT22;24559;53.590;9.764;2023-04-10T12:52:05;24.30;52.80
25334;DHT22;24559;53.590;9.764;2023-04-10T12:54:34;24.30;49.80
25334;DHT22;24559;53.590;9.764;2023-04-10T12:57:00;23.90;51.20
25334;DHT22;24559;53.590;9.764;2023-04-10T12:59:27;24.10;54.00
25334;DHT22;24559;53.590;9.764;2023-04-10T13:01:53;23.90;47.40
25334;DHT22;24559;53.590;9.764;2023-04-10T13:04:19;23.60;49.40
25334;DHT22;24559;53.590;9.764;2023-04-10T13:06:45;23.20;49.40
25334;DHT22;24559;53.590;9.764;2023-04-10T13:09:11;23.30;51.00
25334;DHT22;24559;53.590;9.764;2023-04-10T13:11:37;23.30;53.40
25334;DHT22;24559;53.590;9.764;2023-04-10T13:14:03;23.40;54.60
25334;DHT22;24559;53.590;9.764;2023-04-10T13:16:28;23.60;57.20
25334;DHT22;24559;53.590;9.764;2023-04-10T13:18:54;23.80;56.70
25334;DHT22;24559;53.590;9.764;2023-04-10T13:21:20;24.00;55.70
25334;DHT22;24559;53.590;9.764;2023-04-10T13:23:49;23.80;54.20
25334;DHT22;24559;53.590;9.764;2023-04-10T13:26:15;23.70;54.60
25334;DHT22;24559;53.590;9.764;2023-04-10T13:28:40;23.60;48.80
25334;DHT22;24559;53.590;9.764;2023-04-10T13:31:06;23.40;48.80
25334;DHT22;24559;53.590;9.764;2023-04-10T13:33:31;23.20;55.70
25334;DHT22;24559;53.590;9.764;2023-04-10T13:35:57;22.70;56.10
25334;DHT22;24559;53.590;9.764;2023-04-10T13:38:22;22.80;58.60
25334;DHT22;24559;53.590;9.764;2023-04-10T13:40:48;22.80;59.50
25334;DHT22;24559;53.590;9.764;2023-04-10T13:43:13;22.90;60.50
25334;DHT22;24559;53.590;9.764;2023-04-10T13:45:40;23.40;58.60
25334;DHT22;24559;53.590;9.764;2023-04-10T13:48:05;23.20;56.30
25334;DHT22;24559;53.590;9.764;2023-04-10T13:50:34;22.30;56.80
25334;DHT22;24559;53.590;9.764;2023-04-10T13:53:00;22.20;57.70
25334;DHT22;24559;53.590;9.764;2023-04-10T13:55:26;21.70;62.30
25334;DHT22;24559;53.590;9.764;2023-04-10T13:57:51;21.70;63.80
25334;DHT22;24559;53.590;9.764;2023-04-10T14:00:17;21.20;68.20
25334;DHT22;24559;53.590;9.764;2023-04-10T14:02:42;22.30;67.10
25334;DHT22;24559;53.590;9.764;2023-04-10T14:05:08;22.90;61.60
25334;DHT22;24559;53.590;9.764;2023-04-10T14:07:34;22.20;62.80
25334;DHT22;24559;53.590;9.764;2023-04-10T14:09:59;22.10;65.10
25334;DHT22;24559;53.590;9.764;2023-04-10T14:12:25;22.00;67.60
25334;DHT22;24559;53.590;9.764;2023-04-10T14:14:51;22.30;66.60
25334;DHT22;24559;53.590;9.764;2023-04-10T14:17:17;22.20;65.10
25334;DHT22;24559;53.590;9.764;2023-04-10T14:19:43;22.10;65.10
25334;DHT22;24559;53.590;9.764;2023-04-10T14:22:11;21.80;67.10
25334;DHT22;24559;53.590;9.764;2023-04-10T14:24:36;22.00;65.80
25334;DHT22;24559;53.590;9.764;2023-04-10T14:27:02;22.20;62.40
25334;DHT22;24559;53.590;9.764;2023-04-10T14:29:27;21.70;63.80
25334;DHT22;24559;53.590;9.764;2023-04-10T14:31:53;22.10;67.40
25334;DHT22;24559;53.590;9.764;2023-04-10T14:34:19;21.70;70.90
25334;DHT22;24559;53.590;9.764;2023-04-10T14:36:44;21.70;67.20
25334;DHT22;24559;53.590;9.764;2023-04-10T14:39:10;21.80;71.30
25334;DHT22;24559;53.590;9.764;2023-04-10T14:41:35;21.40;72.00
25334;DHT22;24559;53.590;9.764;2023-04-10T14:44:01;21.50;70.80
25334;DHT22;24559;53.590;9.764;2023-04-10T14:46:27;21.60;70.10
25334;DHT22;24559;53.590;9.764;2023-04-10T14:48:53;22.20;72.10
25334;DHT22;24559;53.590;9.764;2023-04-10T14:51:19;21.50;70.60
25334;DHT22;24559;53.590;9.764;2023-04-10T14:53:45;21.50;72.20
25334;DHT22;24559;53.590;9.764;2023-04-10T14:56:11;21.50;71.80
25334;DHT22;24559;53.590;9.764;2023-04-10T14:58:37;21.50;74.40
25334;DHT22;24559;53.590;9.764;2023-04-10T15:01:02;21.50;75.20
25334;DHT22;24559;53.590;9.764;2023-04-10T15:03:28;22.00;76.60
25334;DHT22;24559;53.590;9.764;2023-04-10T15:05:59;21.60;76.60
25334;DHT22;24559;53.590;9.764;2023-04-10T15:08:25;21.70;78.50
25334;DHT22;24559;53.590;9.764;2023-04-10T15:10:54;21.40;76.60
25334;DHT22;24559;53.590;9.764;2023-04-10T15:13:20;21.50;78.20
25334;DHT22;24559;53.590;9.764;2023-04-10T15:15:46;21.50;80.20
25334;DHT22;24559;53.590;9.764;2023-04-10T15:18:12;21.20;82.30
25334;DHT22;24559;53.590;9.764;2023-04-10T15:20:38;21.20;81.30
25334;DHT22;24559;53.590;9.764;2023-04-10T15:23:03;21.40;83.30
25334;DHT22;24559;53.590;9.764;2023-04-10T15:25:31;21.40;81.40
25334;DHT22;24559;53.590;9.764;2023-04-10T15:27:57;21.40;79.00
25334;DHT22;24559;53.590;9.764;2023-04-10T15:30:22;21.20;80.40
25334;DHT22;24559;53.590;9.764;2023-04-10T15:32:48;21.20;82.00
25334;DHT22;24559;53.590;9.764;2023-04-10T15:35:13;21.50;82.30
25334;DHT22;24559;53.590;9.764;2023-04-10T15:37:39;21.70;79.80
25334;DHT22;24559;53.590;9.764;2023-04-10T15:40:05;21.90;79.80
25334;DHT22;24559;53.590;9.764;2023-04-10T15:42:31;22.10;76.90
25334;DHT22;24559;53.590;9.764;2023-04-10T15:44:57;22.30;72.30
25334;DHT22;24559;53.590;9.764;2023-04-10T15:47:22;22.50;72.10
25334;DHT22;24559;53.590;9.764;2023-04-10T15:49:48;22.50;72.80
25334;DHT22;24559;53.590;9.764;2023-04-10T15:52:14;22.00;72.60
25334;DHT22;24559;53.590;9.764;2023-04-10T15:54:39;21.60;68.70
25334;DHT22;24559;53.590;9.764;2023-04-10T15:57:05;21.20;70.90
25334;DHT22;24559;53.590;9.764;2023-04-10T15:59:31;21.50;75.00
25334;DHT22;24559;53.590;9.764;2023-04-10T16:01:57;21.20;72.70
25334;DHT22;24559;53.590;9.764;2023-04-10T16:04:22;21.00;75.70
25334;DHT22;24559;53.590;9.764;2023-04-10T16:06:48;20.80;77.40
25334;DHT22;24559;53.590;9.764;2023-04-10T16:09:14;20.80;77.40
25334;DHT22;24559;53.590;9.764;2023-04-10T16:11:40;20.80;76.60
25334;DHT22;24559;53.590;9.764;2023-04-10T16:14:06;20.70;77.10
25334;DHT22;24559;53.590;9.764;2023-04-10T16:16:31;20.80;77.00
25334;DHT22;24559;53.590;9.764;2023-04-10T16:18:57;21.20;79.50
25334;DHT22;24559;53.590;9.764;2023-04-10T16:21:24;20.90;79.10